createdAt,value
2018-09-29T00:01:22.685Z,2.21
2018-09-29T00:07:17.714Z,2.23
2018-09-29T00:13:12.707Z,2.11
2018-09-29T00:19:07.698Z,1.98
2018-09-29T00:25:02.726Z,2.27
2018-09-29T00:30:57.724Z,2.2
2018-09-29T00:36:52.744Z,2.06
2018-09-29T00:42:47.728Z,1.88
2018-09-29T00:48:42.720Z,2.65
2018-09-29T00:54:37.729Z,2.33
2018-09-29T01:00:32.739Z,2.32
2018-09-29T01:06:27.727Z,2.31
2018-09-29T01:12:22.738Z,2.37
2018-09-29T01:18:17.741Z,3.37
2018-09-29T01:24:12.768Z,2.43
2018-09-29T01:30:07.779Z,1.8
2018-09-29T01:36:02.760Z,2.95
2018-09-29T01:41:57.781Z,2.43
2018-09-29T01:47:52.777Z,2
2018-09-29T01:53:47.760Z,2.44
2018-09-29T01:59:42.763Z,3.2
2018-09-29T02:05:37.779Z,2.46
2018-09-29T02:11:32.789Z,1.87
2018-09-29T02:17:27.772Z,2.18
2018-09-29T02:23:22.766Z,2.08
2018-09-29T02:29:17.807Z,2.23
2018-09-29T02:35:12.824Z,2.2
2018-09-29T02:41:07.802Z,1.99
2018-09-29T02:47:02.810Z,2.04
2018-09-29T02:52:57.818Z,2.23
2018-09-29T02:58:52.799Z,2.2
2018-09-29T03:04:47.822Z,2.51
2018-09-29T03:10:42.810Z,2.37
2018-09-29T03:16:37.846Z,2.27
2018-09-29T03:22:32.858Z,2.57
2018-09-29T03:28:27.810Z,2.43
2018-09-29T03:34:22.834Z,2.29
2018-09-29T03:40:17.823Z,2.54
2018-09-29T03:46:12.844Z,2.82
2018-09-29T03:52:07.831Z,3.23
2018-09-29T03:58:02.839Z,2.84
2018-09-29T04:03:57.846Z,3.01
2018-09-29T04:09:52.876Z,3.68
2018-09-29T04:15:47.851Z,2.75
2018-09-29T04:21:42.855Z,2.56
2018-09-29T04:27:37.896Z,2.6
2018-09-29T04:33:32.842Z,2.79
2018-09-29T04:39:27.853Z,2.62
2018-09-29T04:45:22.861Z,2.33
2018-09-29T04:51:17.872Z,2.71
2018-09-29T04:57:12.893Z,2.3
2018-09-29T05:03:07.894Z,2.57
2018-09-29T05:09:02.904Z,2.75
2018-09-29T05:14:57.895Z,2.44
2018-09-29T05:20:52.930Z,2.7
2018-09-29T05:26:47.898Z,2.67
2018-09-29T05:32:42.884Z,2.61
2018-09-29T05:38:37.973Z,3.83
2018-09-29T05:44:32.917Z,4.31
2018-09-29T05:50:27.923Z,3.56
2018-09-29T05:56:22.919Z,3.33
2018-09-29T06:02:17.934Z,3.03
2018-09-29T06:08:12.912Z,4
2018-09-29T06:14:07.922Z,4.02
2018-09-29T06:20:02.950Z,4.06
2018-09-29T06:25:57.917Z,4.5
2018-09-29T06:31:52.948Z,4.12
2018-09-29T06:37:47.960Z,4.71
2018-09-29T06:43:42.931Z,4.39
2018-09-29T06:49:37.951Z,4.24
2018-09-29T06:55:32.947Z,4.34
2018-09-29T07:01:27.944Z,4.89
2018-09-29T07:07:22.981Z,4.06
2018-09-29T07:13:17.948Z,4.43
2018-09-29T07:19:12.936Z,4.59
2018-09-29T07:25:07.961Z,4.91
2018-09-29T07:31:02.974Z,5.49
2018-09-29T07:36:57.978Z,5.89
2018-09-29T07:42:52.954Z,6.27
2018-09-29T07:48:47.960Z,7.28
2018-09-29T07:54:43.046Z,9.66
2018-09-29T08:00:37.975Z,10.33
2018-09-29T08:06:33.224Z,9.55
2018-09-29T08:12:28.039Z,7.77
2018-09-29T08:18:23.011Z,5.67
2018-09-29T08:24:18.038Z,6.23
2018-09-29T08:30:12.996Z,5.88
2018-09-29T08:36:07.995Z,5.44
2018-09-29T08:42:03.056Z,5.59
2018-09-29T08:47:58.018Z,5.07
2018-09-29T08:53:53.008Z,4.12
2018-09-29T08:59:48.014Z,3.42
2018-09-29T09:05:43.034Z,2.28
2018-09-29T09:11:38.067Z,2.32
2018-09-29T09:17:33.019Z,2.23
2018-09-29T09:23:28.066Z,1.91
2018-09-29T09:29:23.022Z,3.54
2018-09-29T09:35:18.038Z,2.4
2018-09-29T09:41:13.024Z,2.16
2018-09-29T09:47:08.041Z,2.27
2018-09-29T09:53:03.073Z,2.4
2018-09-29T09:58:58.048Z,2.1
2018-09-29T10:04:53.055Z,2.1
2018-09-29T10:10:48.064Z,1.74
2018-09-29T10:16:43.053Z,2.5
2018-09-29T10:22:38.095Z,2.37
2018-09-29T10:28:33.060Z,2.4
2018-09-29T10:34:28.097Z,2.28
2018-09-29T10:40:23.069Z,2.01
2018-09-29T10:46:18.099Z,2.45
2018-09-29T10:52:13.090Z,2.19
2018-09-29T10:58:08.091Z,2.53
2018-09-29T11:04:03.097Z,2.37
2018-09-29T11:09:58.126Z,2.33
2018-09-29T11:15:53.106Z,2.51
2018-09-29T11:21:48.099Z,2.73
2018-09-29T11:27:43.177Z,2.61
2018-09-29T11:33:38.114Z,2.52
2018-09-29T11:39:33.135Z,2.51
2018-09-29T11:45:28.115Z,2.4
2018-09-29T11:51:23.117Z,2.32
2018-09-29T11:57:18.125Z,2.37
2018-09-29T12:03:13.123Z,2.56
2018-09-29T12:09:08.136Z,2.39
2018-09-29T12:15:03.133Z,2
2018-09-29T12:20:58.162Z,2.42
2018-09-29T12:26:53.133Z,1.76
2018-09-29T12:32:48.142Z,2.41
2018-09-29T12:38:43.194Z,1.96
2018-09-29T12:44:38.164Z,1.91
2018-09-29T12:50:33.160Z,2.13
2018-09-29T12:56:28.219Z,2.02
2018-09-29T13:02:23.179Z,2.2
2018-09-29T13:08:18.173Z,1.86
2018-09-29T13:14:13.179Z,2.15
2018-09-29T13:20:08.178Z,2.31
2018-09-29T13:26:03.200Z,2.36
2018-09-29T13:31:58.236Z,2.06
2018-09-29T13:37:53.214Z,2.34
2018-09-29T13:43:48.202Z,2.15
2018-09-29T13:49:43.226Z,2.4
2018-09-29T13:55:38.186Z,2.77
2018-09-29T14:01:33.204Z,2.51
2018-09-29T14:07:28.213Z,2.03
2018-09-29T14:13:23.239Z,2.47
2018-09-29T14:19:18.225Z,2.36
2018-09-29T14:25:13.266Z,2.37
2018-09-29T14:31:08.234Z,3.12
2018-09-29T14:37:03.286Z,2.17
2018-09-29T14:42:58.230Z,2.36
2018-09-29T14:48:53.285Z,2.92
2018-09-29T14:54:48.223Z,2.19
2018-09-29T15:00:43.294Z,2.44
2018-09-29T15:06:38.258Z,2.71
2018-09-29T15:12:33.271Z,2.06
2018-09-29T15:18:28.251Z,2.2
2018-09-29T15:24:23.236Z,2.16
2018-09-29T15:30:18.274Z,2.54
2018-09-29T15:36:13.284Z,2.86
2018-09-29T15:42:08.319Z,2.81
2018-09-29T15:48:03.267Z,2.72
2018-09-29T15:53:58.308Z,2.61
2018-09-29T15:59:53.290Z,2.94
2018-09-29T16:05:48.337Z,2.63
2018-09-29T16:11:43.305Z,2.67
2018-09-29T16:17:38.323Z,2.8
2018-09-29T16:23:33.312Z,2.63
2018-09-29T16:29:28.297Z,2.58
2018-09-29T16:35:23.299Z,2.8
2018-09-29T16:41:18.323Z,2.44
2018-09-29T16:47:13.360Z,2.73
2018-09-29T16:53:08.324Z,3.49
2018-09-29T16:59:03.333Z,2.96
2018-09-29T17:04:58.327Z,3.17
2018-09-29T17:10:53.384Z,2.76
2018-09-29T17:16:48.326Z,2.92
2018-09-29T17:22:43.343Z,2.75
2018-09-29T17:28:38.345Z,2.52
2018-09-29T17:34:33.322Z,3.2
2018-09-29T17:40:28.371Z,2.77
2018-09-29T17:46:23.361Z,3.48
2018-09-29T17:52:18.368Z,3.03
2018-09-29T17:58:13.355Z,3.44
2018-09-29T18:04:08.487Z,3.15
2018-09-29T18:10:03.372Z,3.2
2018-09-29T18:15:58.366Z,4.03
2018-09-29T18:21:53.415Z,3.41
2018-09-29T18:27:48.358Z,3.28
2018-09-29T18:33:43.389Z,3.41
2018-09-29T18:39:38.378Z,3.23
2018-09-29T18:45:33.404Z,3.07
2018-09-29T18:51:28.385Z,3.12
2018-09-29T18:57:23.449Z,3.2
2018-09-29T19:03:18.399Z,3.42
2018-09-29T19:09:13.406Z,2.84
2018-09-29T19:15:08.406Z,3.11
2018-09-29T19:21:03.405Z,3.63
2018-09-29T19:26:58.416Z,3.76
2018-09-29T19:32:53.392Z,3.25
2018-09-29T19:38:48.416Z,3.09
2018-09-29T19:44:43.414Z,2.82
2018-09-29T19:50:38.427Z,3.13
2018-09-29T19:56:33.437Z,3.09
2018-09-29T20:02:28.461Z,3.11
2018-09-29T20:08:23.428Z,2.8
2018-09-29T20:14:18.493Z,2.89
2018-09-29T20:20:13.457Z,2.93
2018-09-29T20:26:08.432Z,3.2
2018-09-29T20:32:03.467Z,2.56
2018-09-29T20:37:58.469Z,3.26
2018-09-29T20:43:53.469Z,4.38
2018-09-29T20:49:48.475Z,3.78
2018-09-29T20:55:43.482Z,3.38
2018-09-29T21:01:38.472Z,3.58
2018-09-29T21:07:33.481Z,3.01
2018-09-29T21:13:28.581Z,4.37
2018-09-29T21:19:23.482Z,6.09
2018-09-29T21:25:18.531Z,5.34
2018-09-29T21:31:13.485Z,3.34
2018-09-29T21:37:08.495Z,3.03
2018-09-29T21:43:03.493Z,5
2018-09-29T21:48:58.507Z,3.85
2018-09-29T21:54:53.493Z,5.6
2018-09-29T22:00:48.510Z,5.09
2018-09-29T22:06:43.577Z,4.64
2018-09-29T22:12:38.521Z,4.08
2018-09-29T22:18:33.512Z,3.76
2018-09-29T22:24:28.573Z,3.84
2018-09-29T22:30:23.557Z,3.72
2018-09-29T22:36:18.529Z,4.84
2018-09-29T22:42:13.602Z,4.8
2018-09-29T22:48:08.530Z,4.63
2018-09-29T22:54:03.554Z,4.48
2018-09-29T22:59:58.554Z,4.2
2018-09-29T23:05:53.530Z,4.75
2018-09-29T23:11:48.559Z,4.51
2018-09-29T23:17:43.551Z,4.33
2018-09-29T23:23:38.556Z,3.94
2018-09-29T23:29:33.634Z,4.32
2018-09-29T23:35:28.596Z,4.43
2018-09-29T23:41:23.555Z,5.02
2018-09-29T23:47:18.637Z,4.22
2018-09-29T23:53:13.597Z,4.49
2018-09-29T23:59:08.593Z,4.88
